Map

Track Data

SID SEASON NUMBER BASIN SUBBASIN NAME ISO_TIME NATURE LAT LON WMO_WIND WMO_PRES WMO_AGENCY TRACK_TYPE DIST2LAND LANDFALL IFLAG USA_AGENCY USA_ATCF_ID USA_LAT USA_LON USA_RECORD USA_STATUS USA_WIND USA_PRES USA_SSHS USA_R34_NE USA_R34_SE USA_R34_SW USA_R34_NW USA_R50_NE USA_R50_SE USA_R50_SW USA_R50_NW USA_R64_NE USA_R64_SE USA_R64_SW USA_R64_NW USA_POCI USA_ROCI USA_RMW USA_EYE TOKYO_LAT TOKYO_LON TOKYO_GRADE TOKYO_WIND TOKYO_PRES TOKYO_R50_DIR TOKYO_R50_LONG TOKYO_R50_SHORT TOKYO_R30_DIR TOKYO_R30_LONG TOKYO_R30_SHORT TOKYO_LAND CMA_LAT CMA_LON CMA_CAT CMA_WIND CMA_PRES HKO_LAT HKO_LON HKO_CAT HKO_WIND HKO_PRES NEWDELHI_LAT NEWDELHI_LON NEWDELHI_GRADE NEWDELHI_WIND NEWDELHI_PRES NEWDELHI_CI NEWDELHI_DP NEWDELHI_POCI REUNION_LAT REUNION_LON REUNION_TYPE REUNION_WIND REUNION_PRES REUNION_TNUM REUNION_CI REUNION_RMW REUNION_R34_NE REUNION_R34_SE REUNION_R34_SW REUNION_R34_NW REUNION_R50_NE REUNION_R50_SE REUNION_R50_SW REUNION_R50_NW REUNION_R64_NE REUNION_R64_SE REUNION_R64_SW REUNION_R64_NW BOM_LAT BOM_LON BOM_TYPE BOM_WIND BOM_PRES BOM_TNUM BOM_CI BOM_RMW BOM_R34_NE BOM_R34_SE BOM_R34_SW BOM_R34_NW BOM_R50_NE BOM_R50_SE BOM_R50_SW BOM_R50_NW BOM_R64_NE BOM_R64_SE BOM_R64_SW BOM_R64_NW BOM_ROCI BOM_POCI BOM_EYE BOM_POS_METHOD BOM_PRES_METHOD NADI_LAT NADI_LON NADI_CAT NADI_WIND NADI_PRES WELLINGTON_LAT WELLINGTON_LON WELLINGTON_WIND WELLINGTON_PRES DS824_LAT DS824_LON DS824_STAGE DS824_WIND DS824_PRES TD9636_LAT TD9636_LON TD9636_STAGE TD9636_WIND TD9636_PRES TD9635_LAT TD9635_LON TD9635_WIND TD9635_PRES TD9635_ROCI NEUMANN_LAT NEUMANN_LON NEUMANN_CLASS NEUMANN_WIND NEUMANN_PRES MLC_LAT MLC_LON MLC_CLASS MLC_WIND MLC_PRES USA_GUST BOM_GUST BOM_GUST_PER REUNION_GUST REUNION_GUST_PER USA_SEAHGT USA_SEARAD_NE USA_SEARAD_SE USA_SEARAD_SW USA_SEARAD_NW STORM_SPEED STORM_DIR
1970261N09140 1970 115 WP MM NOT_NAMED 1970-09-17 12:00:00 TS 9.50000 140.200 main 1248 1244 __O___________ -1 9.50000 140.200 0 1007 9 307
1970261N09140 1970 115 WP MM NOT_NAMED 1970-09-17 15:00:00 TS 9.77011 139.838 main 1263 1263 __P___________ -1 9.77011 139.838 0 1007 9 311
1970261N09140 1970 115 WP MM NOT_NAMED 1970-09-17 18:00:00 TS 10.1000 139.500 main 1284 1284 __O___________ -1 10.1000 139.500 0 1007 10 320
1970261N09140 1970 115 WP MM NOT_NAMED 1970-09-17 21:00:00 TS 10.5149 139.200 main 1316 1316 __P___________ -1 10.5149 139.200 0 1007 10 324
1970261N09140 1970 115 WP MM NOT_NAMED 1970-09-18 00:00:00 TS 10.9000 138.900 main 1350 1350 __O___________ -1 10.9000 138.900 0 1007 10 315
1970261N09140 1970 115 WP MM NOT_NAMED 1970-09-18 03:00:00 TS 11.1901 138.520 main 1363 1333 __P___________ -1 11.1901 138.520 0 1007 8 300
1970261N09140 1970 115 WP MM NOT_NAMED 1970-09-18 06:00:00 TS 11.3000 138.200 main 1333 1307 __O___________ -1 11.3000 138.200 0 1007 5 262
1970261N09140 1970 115 WP MM NOT_NAMED 1970-09-18 09:00:00 TS 11.1224 138.017 main 1307 1302 __P___________ -1 11.1224 138.017 0 1007 4 206
1970261N09140 1970 115 WP MM NOT_NAMED 1970-09-18 12:00:00 TS 10.9000 138.000 main 1302 1302 __O___________ -1 10.9000 138.000 0 1007 3 146
1970261N09140 1970 115 WP MM NOT_NAMED 1970-09-18 15:00:00 TS 10.8826 138.178 main 1323 1323 __P___________ -1 10.8826 138.178 0 1007 4 76
1970261N09140 1970 115 WP MM NOT_NAMED 1970-09-18 18:00:00 TS 11.0000 138.400 main 1347 1347 __O___________ -1 11.0000 138.400 0 1007 5 42
1970261N09140 1970 115 WP MM NOT_NAMED 1970-09-18 21:00:00 TS 11.2425 138.502 main 1363 1363 __P___________ -1 11.2425 138.502 0 1005 5 11
1970261N09140 1970 115 WP MM NOT_NAMED 1970-09-19 00:00:00 TS 11.5000 138.500 main 1370 1361 __O___________ -1 11.5000 138.500 0 1004 4 346
1970261N09140 1970 115 WP MM NOT_NAMED 1970-09-19 03:00:00 TS 11.6300 138.403 main 1361 1342 __P___________ -1 11.6300 138.403 0 1004 4 304
1970261N09140 1970 115 WP MM NOT_NAMED 1970-09-19 06:00:00 TS 11.7000 138.200 main 1342 1310 __O___________ -1 11.7000 138.200 0 1004 5 284
1970261N09140 1970 115 WP MM NOT_NAMED 1970-09-19 09:00:00 TS 11.7501 137.907 main 1312 1280 __P___________ -1 11.7501 137.907 0 1004 6 280
1970261N09140 1970 115 WP MM NOT_NAMED 1970-09-19 12:00:00 TS 11.8000 137.600 main 1280 1259 __O___________ -1 11.8000 137.600 0 1004 5 283
1970261N09140 1970 115 WP MM NOT_NAMED 1970-09-19 15:00:00 TS 11.8700 137.363 main 1261 1240 __P___________ -1 11.8700 137.363 0 1004 4 297
1970261N09140 1970 115 WP MM NOT_NAMED 1970-09-19 18:00:00 TS 12.0000 137.200 main 1243 1235 __O___________ -1 12.0000 137.200 0 19 1004 4 327
1970261N09140 1970 115 WP MM NOT_NAMED 1970-09-19 21:00:00 TS 12.2275 137.127 main 1238 1238 __P___________ -1 12.2275 137.127 0 19 1004 5 349
1970261N09140 1970 115 WP MM NOT_NAMED 1970-09-20 00:00:00 TS 12.5000 137.100 main 1242 1242 __O___________ -1 12.5000 137.100 0 19 1004 5 357
1970261N09140 1970 115 WP MM NOT_NAMED 1970-09-20 03:00:00 TS 12.7500 137.080 main 1245 1237 __P___________ -1 12.7500 137.080 0 21 1004 5 349
1970261N09140 1970 115 WP MM NOT_NAMED 1970-09-20 06:00:00 TS 13.0000 137.000 main 1239 1221 __O___________ -1 13.0000 137.000 1 23 1004 6 333
1970261N09140 1970 115 WP MM NOT_NAMED 1970-09-20 09:00:00 TS 13.2725 136.803 main 1223 1196 __P___________ -1 13.2725 136.803 1 23 1004 7 316
1970261N09140 1970 115 WP MM NOT_NAMED 1970-09-20 12:00:00 TS 13.5000 136.500 main 1196 1156 __O___________ -1 13.5000 136.500 1 23 1004 7 296
1970261N09140 1970 115 WP MM NOT_NAMED 1970-09-20 15:00:00 TS 13.5926 136.115 main 1156 1117 __P___________ -1 13.5926 136.115 1 23 1004 8 284
1970261N09140 1970 115 WP MM NOT_NAMED 1970-09-20 18:00:00 TS 13.7000 135.700 main 1117 1089 __O___________ -1 13.7000 135.700 1 23 1004 8 297
1970261N09140 1970 115 WP MM NOT_NAMED 1970-09-20 21:00:00 TS 13.9698 135.365 main 1091 1055 __P___________ -1 13.9698 135.365 1 23 1004 9 311
1970261N09140 1970 115 WP MM NOT_NAMED 1970-09-21 00:00:00 TS 14.3000 135.000 main 1055 1020 __O___________ -1 14.3000 135.000 1 23 1004 10 311
1970261N09140 1970 115 WP MM NOT_NAMED 1970-09-21 03:00:00 TS 14.6372 134.560 main 1020 967 __P___________ -1 14.6372 134.560 1 23 1004 11 302
1970261N09140 1970 115 WP MM NOT_NAMED 1970-09-21 06:00:00 TS 14.9000 134.000 main 967 909 __O___________ -1 14.9000 134.000 1 23 1004 12 285
1970261N09140 1970 115 WP MM NOT_NAMED 1970-09-21 09:00:00 TS 14.9572 133.324 main 899 829 __P___________ -1 14.9572 133.324 1 23 1004 15 274
1970261N09140 1970 115 WP MM NOT_NAMED 1970-09-21 12:00:00 TS 15.0000 132.500 main 819 725 __O___________ -1 15.0000 132.500 1 23 1004 18 276
1970261N09140 1970 115 WP MM NOT_NAMED 1970-09-21 15:00:00 TS 15.1461 131.433 main 715 654 __P___________ -1 15.1461 131.433 1 23 1004 20 285
1970261N09140 1970 115 WP MM NOT_NAMED 1970-09-21 18:00:00 TS 15.5000 130.500 main 654 647 __O___________ -1 15.5000 130.500 1 23 1004 17 309
1970261N09140 1970 115 WP MM NOT_NAMED 1970-09-21 21:00:00 TS 16.2117 130.080 main 664 658 __P___________ -1 16.2117 130.080 1 23 1004 16 332
1970261N09140 1970 115 WP MM NOT_NAMED 1970-09-22 00:00:00 TS 16.9200 129.700 main 660 650 __OO__________ -1 17.0000 129.900 1 23 1004 16.6000 128.900 TD 25 1002 13 329
1970261N09140 1970 115 WP MM NOT_NAMED 1970-09-22 03:00:00 TS 17.2848 129.403 main 657 646 __PP__________ -1 17.5373 129.714 1 26 1003 16.7800 128.780 TD 25 1002 9 319
1970261N09140 1970 115 WP MM NOT_NAMED 1970-09-22 06:00:00 TS 17.5714 129.114 main 651 641 __OO__________ -1 18.0000 129.500 1 29 1002 17.0000 128.600 TD 25 1002 9 314
1970261N09140 1970 115 WP MM NOT_NAMED 1970-09-22 09:00:00 TS 17.9151 128.726 main 641 639 __PP__________ -1 18.5451 129.130 1 29 1002 17.2850 128.323 TD 25 1002 10 315
1970261N09140 1970 115 WP MM NOT_NAMED 1970-09-22 12:00:00 TS 18.3000 128.350 main 641 601 __OO__________ -1 19.0000 128.700 1 29 1002 17.6000 128.000 TD 25 1002 10 314
1970261N09140 1970 115 WP MM NOT_NAMED 1970-09-22 15:00:00 TS 18.5837 128.000 main 601 570 __PP__________ -1 19.2674 128.307 1 29 1002 17.9000 127.692 TD 25 1002 8 307
1970261N09140 1970 115 WP MM NOT_NAMED 1970-09-22 18:00:00 TS 18.8000 127.650 main 570 530 __OO__________ -1 19.4000 127.900 1 29 1002 18.2000 127.400 TD 25 1002 8 302
1970261N09140 1970 115 WP MM NOT_NAMED 1970-09-22 21:00:00 TS 18.9899 127.311 main 530 501 __PP__________ -1 19.4950 127.450 1 29 1002 18.4848 127.172 TD 25 1002 8 298
1970261N09140 1970 115 WP MM NOT_NAMED 1970-09-23 00:00:00 TS 19.1500 126.950 main 502 453 __OO__________ -1 19.5000 127.000 1 29 1002 18.8000 126.900 TD 25 1002 8 293
1970261N09140 1970 115 WP MM NOT_NAMED 1970-09-23 03:00:00 TS 19.3039 126.510 main 453 415 __PP__________ -1 19.3776 126.547 1 29 1002 19.2301 126.473 TD 25 1002 9 291
1970261N09140 1970 115 WP MM NOT_NAMED 1970-09-23 06:00:00 TS 19.4500 126.100 main 418 401 __OO__________ -1 19.3000 126.200 1 29 1002 19.6000 126.000 TD 25 1002 7 299
1970261N09140 1970 115 WP MM NOT_NAMED 1970-09-23 09:00:00 TS 19.6523 125.846 main 395 380 __PP__________ -1 19.5371 126.115 1 29 1002 19.7674 125.577 TD 25 1002 6 303
1970261N09140 1970 115 WP MM NOT_NAMED 1970-09-23 12:00:00 TS 19.7500 125.600 main 380 333 __OO__________ -1 19.7000 126.000 1 29 1002 19.8000 125.200 TD 25 1002 6 265
1970261N09140 1970 115 WP MM NOT_NAMED 1970-09-23 15:00:00 TS 19.5951 125.215 main 333 285 __PP__________ -1 19.4253 125.544 1 29 1002 19.7649 124.885 TD 25 1002 9 242
1970261N09140 1970 115 WP MM NOT_NAMED 1970-09-23 18:00:00 TS 19.3500 124.800 main 285 248 __OO__________ -1 19.0000 125.000 1 29 1002 19.7000 124.600 TD 25 1003 8 240
1970261N09140 1970 115 WP MM NOT_NAMED 1970-09-23 21:00:00 TS 19.1884 124.480 main 248 205 __PP__________ -1 18.6771 124.615 1 29 1002 19.6996 124.345 TD 25 1003 7 246
1970261N09140 1970 115 WP MM NOT_NAMED 1970-09-24 00:00:00 TS 19.0500 124.100 main 205 147 __OO__________ -1 18.4000 124.200 1 29 1002 19.7000 124.000 TD 25 1004 9 252
1970261N09140 1970 115 WP MM NOT_NAMED 1970-09-24 03:00:00 TS 18.9062 123.549 main 138 77 __PP__________ -1 18.1622 123.660 1 29 1002 19.6502 123.437 TD 25 1003 12 258
1970261N09140 1970 115 WP MM NOT_NAMED 1970-09-24 06:00:00 TS 18.8000 122.900 main 77 33 __OO__________ -1 18.0000 123.000 1 29 1002 19.6000 122.800 TD 25 1003 12 263
1970261N09140 1970 115 WP MM NOT_NAMED 1970-09-24 09:00:00 TS 18.7483 122.262 main 33 30 __PP__________ -1 17.9122 122.253 1 26 1002 19.5845 122.272 TD 25 1002 13 268
1970261N09140 1970 115 WP MM NOT_NAMED 1970-09-24 12:00:00 TS 18.7500 121.550 main 39 22 __OO__________ -1 17.9000 121.400 1 23 1002 19.6000 121.700 TD 25 1002 15 272
1970261N09140 1970 115 WP MM NOT_NAMED 1970-09-24 15:00:00 TS 18.8037 120.723 main 24 24 __PP__________ -1 17.9576 120.458 1 23 1002 19.6499 120.988 TD 25 1002 17 269
1970261N09140 1970 115 WP MM NOT_NAMED 1970-09-24 18:00:00 TS 18.7286 119.800 main 90 90 __OO__________ -1 18.0000 119.500 1 23 1002 19.7000 120.200 TD 25 1002 18 261
1970261N09140 1970 115 WP MM NOT_NAMED 1970-09-24 21:00:00 TS 18.5246 118.820 main 184 184 __PP__________ -1 17.9304 118.530 1 23 1002 19.7131 119.400 TD 25 1002 18 253
1970261N09140 1970 115 WP MM NOT_NAMED 1970-09-25 00:00:00 TS 18.1800 117.960 main 252 252 __OO__________ -1 17.8000 117.800 1 23 1002 19.7000 118.600 TD 25 1002 15 234
1970261N09140 1970 115 WP MM NOT_NAMED 1970-09-25 03:00:00 TS 17.6494 117.545 main 284 279 __P___________ -1 17.6494 117.545 1 21 1002 TD 8 213
1970261N09140 1970 115 WP MM NOT_NAMED 1970-09-25 06:00:00 TS 17.5000 117.500 main 279 279 __O___________ -1 17.5000 117.500 0 19 1002 3 216
1970261N09140 1970 115 WP MM NOT_NAMED 1970-09-25 09:00:00 TS 17.4000 117.358 main 283 283 __P___________ -1 17.4000 117.358 0 19 1002 4 235
1970261N09140 1970 115 WP MM NOT_NAMED 1970-09-25 12:00:00 TS 17.3000 117.200 main 298 298 __O___________ -1 17.3000 117.200 0 19 1002 4 234
1970261N09140 1970 115 WP MM NOT_NAMED 1970-09-25 15:00:00 TS 17.1626 117.010 main 314 311 __P___________ -1 17.1626 117.010 0 19 1002 5 232
1970261N09140 1970 115 WP MM NOT_NAMED 1970-09-25 18:00:00 TS 17.0000 116.800 main 328 __O___________ -1 17.0000 116.800 0 19 1002 5 231

Digital Typhoon Data and Search

About IBTrACS Database

This database is a web-friendly format of International Best Track Archive for Climate Stewardship (IBTrACS), a global best track data archive curated by NOAA dating back to 1842.

Updated: 2021-11-26